sensor_id;sensor_type;location;lat;lon;timestamp;pressure;altitude;pressure_sealevel;temperature;humidity
3598;BME280;1813;52.016;8.714;2022-11-03T00:00:09;-16261.94;;;-139.71;54.21
3598;BME280;1813;52.016;8.714;2022-11-03T00:02:44;-16261.94;;;-139.71;54.12
3598;BME280;1813;52.016;8.714;2022-11-03T00:05:17;-16261.94;;;-139.71;53.88
3598;BME280;1813;52.016;8.714;2022-11-03T00:08:04;-16261.94;;;-139.71;53.90
3598;BME280;1813;52.016;8.714;2022-11-03T00:10:38;-16261.94;;;-139.71;53.60
3598;BME280;1813;52.016;8.714;2022-11-03T00:13:12;-16261.94;;;-139.71;53.62
3598;BME280;1813;52.016;8.714;2022-11-03T00:15:52;-16261.94;;;-139.71;53.71
3598;BME280;1813;52.016;8.714;2022-11-03T00:18:26;-16261.94;;;-139.71;53.74
3598;BME280;1813;52.016;8.714;2022-11-03T00:21:01;-16261.94;;;-139.71;53.55
3598;BME280;1813;52.016;8.714;2022-11-03T00:23:37;-16261.94;;;-139.71;53.43
3598;BME280;1813;52.016;8.714;2022-11-03T00:26:13;-16261.94;;;-139.71;53.42
3598;BME280;1813;52.016;8.714;2022-11-03T00:28:49;-16261.94;;;-139.71;53.43
3598;BME280;1813;52.016;8.714;2022-11-03T00:31:27;-16261.94;;;-139.71;53.37
3598;BME280;1813;52.016;8.714;2022-11-03T00:34:02;-16261.94;;;-139.71;53.42
3598;BME280;1813;52.016;8.714;2022-11-03T00:36:38;-16261.94;;;-139.71;53.31
3598;BME280;1813;52.016;8.714;2022-11-03T00:39:12;-16261.94;;;-139.71;53.34
3598;BME280;1813;52.016;8.714;2022-11-03T00:41:46;-16261.94;;;-139.71;53.47
3598;BME280;1813;52.016;8.714;2022-11-03T00:44:20;-16261.94;;;-139.71;53.66
3598;BME280;1813;52.016;8.714;2022-11-03T00:46:57;-16261.94;;;-139.71;53.69
3598;BME280;1813;52.016;8.714;2022-11-03T00:49:31;-16261.94;;;-139.71;53.73
3598;BME280;1813;52.016;8.714;2022-11-03T00:52:04;-16261.94;;;-139.71;53.76
3598;BME280;1813;52.016;8.714;2022-11-03T00:54:39;-16261.94;;;-139.71;54.01
3598;BME280;1813;52.016;8.714;2022-11-03T00:57:13;-16261.94;;;-139.71;53.96
3598;BME280;1813;52.016;8.714;2022-11-03T00:59:47;-16261.94;;;-139.71;54.54
3598;BME280;1813;52.016;8.714;2022-11-03T01:02:23;-16261.94;;;-139.71;54.28
3598;BME280;1813;52.016;8.714;2022-11-03T01:04:57;-16261.94;;;-139.71;54.37
3598;BME280;1813;52.016;8.714;2022-11-03T01:07:43;-16261.94;;;-139.71;54.63
3598;BME280;1813;52.016;8.714;2022-11-03T01:10:17;-16261.94;;;-139.71;54.55
3598;BME280;1813;52.016;8.714;2022-11-03T01:12:51;-16261.94;;;-139.71;54.57
3598;BME280;1813;52.016;8.714;2022-11-03T01:15:25;-16261.94;;;-139.71;54.68
3598;BME280;1813;52.016;8.714;2022-11-03T01:18:02;-16261.94;;;-139.71;54.97
3598;BME280;1813;52.016;8.714;2022-11-03T01:20:36;-16261.94;;;-139.71;54.93
3598;BME280;1813;52.016;8.714;2022-11-03T01:23:10;-16261.94;;;-139.71;55.18
3598;BME280;1813;52.016;8.714;2022-11-03T01:25:44;-16261.94;;;-139.71;55.29
3598;BME280;1813;52.016;8.714;2022-11-03T01:28:18;-16261.94;;;-139.71;55.50
3598;BME280;1813;52.016;8.714;2022-11-03T01:30:52;-16261.94;;;-139.71;55.77
3598;BME280;1813;52.016;8.714;2022-11-03T01:33:28;-16261.94;;;-139.71;55.85
3598;BME280;1813;52.016;8.714;2022-11-03T01:36:02;-16261.94;;;-139.71;55.67
3598;BME280;1813;52.016;8.714;2022-11-03T01:38:37;-16261.94;;;-139.71;55.81
3598;BME280;1813;52.016;8.714;2022-11-03T01:41:13;-16261.94;;;-139.71;56.03
3598;BME280;1813;52.016;8.714;2022-11-03T01:43:50;-16261.94;;;-139.71;56.30
3598;BME280;1813;52.016;8.714;2022-11-03T01:46:26;-16261.94;;;-139.71;56.49
3598;BME280;1813;52.016;8.714;2022-11-03T01:49:06;-16261.94;;;-139.71;56.61
3598;BME280;1813;52.016;8.714;2022-11-03T01:51:45;-16261.94;;;-139.71;56.86
3598;BME280;1813;52.016;8.714;2022-11-03T01:54:23;-16261.94;;;-139.71;56.77
3598;BME280;1813;52.016;8.714;2022-11-03T01:56:59;-16261.94;;;-139.71;57.03
3598;BME280;1813;52.016;8.714;2022-11-03T01:59:33;-16261.94;;;-139.71;57.26
3598;BME280;1813;52.016;8.714;2022-11-03T02:02:08;-16261.94;;;-139.71;57.09
3598;BME280;1813;52.016;8.714;2022-11-03T02:04:45;-16261.94;;;-139.71;57.11
3598;BME280;1813;52.016;8.714;2022-11-03T02:07:25;-16261.94;;;-139.71;57.30
3598;BME280;1813;52.016;8.714;2022-11-03T02:10:01;-16261.94;;;-139.71;57.30
3598;BME280;1813;52.016;8.714;2022-11-03T02:12:36;-16261.94;;;-139.71;57.54
3598;BME280;1813;52.016;8.714;2022-11-03T02:15:13;-16261.94;;;-139.71;57.52
3598;BME280;1813;52.016;8.714;2022-11-03T02:17:50;-16261.94;;;-139.71;57.42
3598;BME280;1813;52.016;8.714;2022-11-03T02:20:28;-16261.94;;;-139.71;57.54
3598;BME280;1813;52.016;8.714;2022-11-03T02:23:25;-16261.94;;;-139.71;57.86
3598;BME280;1813;52.016;8.714;2022-11-03T02:26:05;-16261.94;;;-139.71;57.82
3598;BME280;1813;52.016;8.714;2022-11-03T02:28:41;-16261.94;;;-139.71;57.92
3598;BME280;1813;52.016;8.714;2022-11-03T02:31:18;-16261.94;;;-139.71;58.19
3598;BME280;1813;52.016;8.714;2022-11-03T02:33:58;-16261.94;;;-139.71;58.45
3598;BME280;1813;52.016;8.714;2022-11-03T02:36:39;-16261.94;;;-139.71;58.63
3598;BME280;1813;52.016;8.714;2022-11-03T02:39:18;-16261.94;;;-139.71;58.89
3598;BME280;1813;52.016;8.714;2022-11-03T02:41:58;-16261.94;;;-139.71;59.31
3598;BME280;1813;52.016;8.714;2022-11-03T02:44:36;-16261.94;;;-139.71;59.45
3598;BME280;1813;52.016;8.714;2022-11-03T02:47:12;-16261.94;;;-139.71;59.63
3598;BME280;1813;52.016;8.714;2022-11-03T02:49:49;-16261.94;;;-139.71;59.84
3598;BME280;1813;52.016;8.714;2022-11-03T02:52:35;-16261.94;;;-139.71;60.07
3598;BME280;1813;52.016;8.714;2022-11-03T02:55:14;-16261.94;;;-139.71;60.09
3598;BME280;1813;52.016;8.714;2022-11-03T02:57:58;-16261.94;;;-139.71;60.48
3598;BME280;1813;52.016;8.714;2022-11-03T03:00:38;-16261.94;;;-139.71;60.78
3598;BME280;1813;52.016;8.714;2022-11-03T03:03:17;-16261.94;;;-139.71;60.65
3598;BME280;1813;52.016;8.714;2022-11-03T03:05:58;-16261.94;;;-139.71;60.67
3598;BME280;1813;52.016;8.714;2022-11-03T03:08:39;-16261.94;;;-139.71;61.35
3598;BME280;1813;52.016;8.714;2022-11-03T03:11:15;-16261.94;;;-139.71;61.74
3598;BME280;1813;52.016;8.714;2022-11-03T03:14:11;-16261.94;;;-139.71;61.89
3598;BME280;1813;52.016;8.714;2022-11-03T03:16:53;-16261.94;;;-139.71;62.15
3598;BME280;1813;52.016;8.714;2022-11-03T03:19:40;-16261.94;;;-139.71;62.08
3598;BME280;1813;52.016;8.714;2022-11-03T03:22:21;-16261.94;;;-139.71;62.15
3598;BME280;1813;52.016;8.714;2022-11-03T03:24:59;-16261.94;;;-139.71;62.40
3598;BME280;1813;52.016;8.714;2022-11-03T03:27:38;-16261.94;;;-139.71;62.56
3598;BME280;1813;52.016;8.714;2022-11-03T03:30:18;-16261.94;;;-139.71;62.33
3598;BME280;1813;52.016;8.714;2022-11-03T03:32:53;-16261.94;;;-139.71;62.36
3598;BME280;1813;52.016;8.714;2022-11-03T03:35:30;-16261.94;;;-139.71;62.46
3598;BME280;1813;52.016;8.714;2022-11-03T03:38:08;-16261.94;;;-139.71;62.48
3598;BME280;1813;52.016;8.714;2022-11-03T03:40:46;-16261.94;;;-139.71;62.63
3598;BME280;1813;52.016;8.714;2022-11-03T03:43:22;-16261.94;;;-139.71;62.74
3598;BME280;1813;52.016;8.714;2022-11-03T03:46:06;-16261.94;;;-139.71;62.80
3598;BME280;1813;52.016;8.714;2022-11-03T03:48:40;-16261.94;;;-139.71;62.86
3598;BME280;1813;52.016;8.714;2022-11-03T03:51:15;-16261.94;;;-139.71;63.02
3598;BME280;1813;52.016;8.714;2022-11-03T03:53:52;-16261.94;;;-139.71;63.21
3598;BME280;1813;52.016;8.714;2022-11-03T03:56:29;-16261.94;;;-139.71;63.17
3598;BME280;1813;52.016;8.714;2022-11-03T03:59:05;-16261.94;;;-139.71;63.33
3598;BME280;1813;52.016;8.714;2022-11-03T04:01:42;-16261.94;;;-139.71;63.43
3598;BME280;1813;52.016;8.714;2022-11-03T04:04:16;-16261.94;;;-139.71;63.43
3598;BME280;1813;52.016;8.714;2022-11-03T04:06:50;-16261.94;;;-139.71;63.48
3598;BME280;1813;52.016;8.714;2022-11-03T04:09:44;-16261.94;;;-139.71;63.55
3598;BME280;1813;52.016;8.714;2022-11-03T04:12:18;-16261.94;;;-139.71;63.52
3598;BME280;1813;52.016;8.714;2022-11-03T04:15:05;-16261.94;;;-139.71;63.27
3598;BME280;1813;52.016;8.714;2022-11-03T04:17:54;-16261.94;;;-139.71;63.03
3598;BME280;1813;52.016;8.714;2022-11-03T04:20:41;-16261.94;;;-139.71;63.06
3598;BME280;1813;52.016;8.714;2022-11-03T04:23:27;-16261.94;;;-139.71;63.20
3598;BME280;1813;52.016;8.714;2022-11-03T04:26:02;-16261.94;;;-139.71;63.13
3598;BME280;1813;52.016;8.714;2022-11-03T04:28:39;-16261.94;;;-139.71;62.90
3598;BME280;1813;52.016;8.714;2022-11-03T04:31:15;-16261.94;;;-139.71;62.93
3598;BME280;1813;52.016;8.714;2022-11-03T04:33:52;-16261.94;;;-139.71;62.87
3598;BME280;1813;52.016;8.714;2022-11-03T04:36:26;-16261.94;;;-139.71;62.70
3598;BME280;1813;52.016;8.714;2022-11-03T04:39:00;-16261.94;;;-139.71;62.72
3598;BME280;1813;52.016;8.714;2022-11-03T04:41:35;-16261.94;;;-139.71;62.94
3598;BME280;1813;52.016;8.714;2022-11-03T04:44:13;-16261.94;;;-139.71;62.79
3598;BME280;1813;52.016;8.714;2022-11-03T04:46:47;-16261.94;;;-139.71;62.85
3598;BME280;1813;52.016;8.714;2022-11-03T04:49:24;-16261.94;;;-139.71;62.86
3598;BME280;1813;52.016;8.714;2022-11-03T04:51:58;-16261.94;;;-139.71;63.18
3598;BME280;1813;52.016;8.714;2022-11-03T04:54:32;-16261.94;;;-139.71;63.21
3598;BME280;1813;52.016;8.714;2022-11-03T04:57:10;-16261.94;;;-139.71;63.26
3598;BME280;1813;52.016;8.714;2022-11-03T04:59:47;-16261.94;;;-139.71;63.45
3598;BME280;1813;52.016;8.714;2022-11-03T05:02:21;-16261.94;;;-139.71;63.54
3598;BME280;1813;52.016;8.714;2022-11-03T05:04:58;-16261.94;;;-139.71;63.24
3598;BME280;1813;52.016;8.714;2022-11-03T05:07:34;-16261.94;;;-139.71;63.24
3598;BME280;1813;52.016;8.714;2022-11-03T05:10:12;-16261.94;;;-139.71;63.10
3598;BME280;1813;52.016;8.714;2022-11-03T05:12:48;-16261.94;;;-139.71;63.03
3598;BME280;1813;52.016;8.714;2022-11-03T05:15:28;-16261.94;;;-139.71;62.93
3598;BME280;1813;52.016;8.714;2022-11-03T05:18:12;-16261.94;;;-139.71;63.05
3598;BME280;1813;52.016;8.714;2022-11-03T05:20:54;-16261.94;;;-139.71;62.77
3598;BME280;1813;52.016;8.714;2022-11-03T05:23:31;-16261.94;;;-139.71;62.77
3598;BME280;1813;52.016;8.714;2022-11-03T05:26:14;-16261.94;;;-139.71;62.49
3598;BME280;1813;52.016;8.714;2022-11-03T05:28:51;-16261.94;;;-139.71;62.68
3598;BME280;1813;52.016;8.714;2022-11-03T05:31:31;-16261.94;;;-139.71;62.50
3598;BME280;1813;52.016;8.714;2022-11-03T05:34:30;-16261.94;;;-139.71;62.35
3598;BME280;1813;52.016;8.714;2022-11-03T05:37:23;-16261.94;;;-139.71;62.28
3598;BME280;1813;52.016;8.714;2022-11-03T05:40:00;-16261.94;;;-139.71;62.39
3598;BME280;1813;52.016;8.714;2022-11-03T05:42:36;-16261.94;;;-139.71;62.42
3598;BME280;1813;52.016;8.714;2022-11-03T05:45:19;-16261.94;;;-139.71;62.19
3598;BME280;1813;52.016;8.714;2022-11-03T05:47:56;-16261.94;;;-139.71;62.08
3598;BME280;1813;52.016;8.714;2022-11-03T05:50:33;-16261.94;;;-139.71;62.16
3598;BME280;1813;52.016;8.714;2022-11-03T05:53:26;-16261.94;;;-139.71;62.00
3598;BME280;1813;52.016;8.714;2022-11-03T05:56:03;-16261.94;;;-139.71;62.21
3598;BME280;1813;52.016;8.714;2022-11-03T05:58:40;-16261.94;;;-139.71;62.14
3598;BME280;1813;52.016;8.714;2022-11-03T06:01:18;-16261.94;;;-139.71;61.98
3598;BME280;1813;52.016;8.714;2022-11-03T06:03:53;-16261.94;;;-139.71;62.00
3598;BME280;1813;52.016;8.714;2022-11-03T06:06:31;-16261.94;;;-139.71;62.03
3598;BME280;1813;52.016;8.714;2022-11-03T06:09:15;-16261.94;;;-139.71;62.11
3598;BME280;1813;52.016;8.714;2022-11-03T06:11:53;-16261.94;;;-139.71;62.21
3598;BME280;1813;52.016;8.714;2022-11-03T06:14:29;-16261.94;;;-139.71;62.47
3598;BME280;1813;52.016;8.714;2022-11-03T06:17:05;-16261.94;;;-139.71;62.37
3598;BME280;1813;52.016;8.714;2022-11-03T06:19:41;-16261.94;;;-139.71;62.61
3598;BME280;1813;52.016;8.714;2022-11-03T06:22:20;-16261.94;;;-139.71;62.51
3598;BME280;1813;52.016;8.714;2022-11-03T06:25:00;-16261.94;;;-139.71;62.55
3598;BME280;1813;52.016;8.714;2022-11-03T06:27:45;-16261.94;;;-139.71;62.66
3598;BME280;1813;52.016;8.714;2022-11-03T06:30:23;-16261.94;;;-139.71;62.49
3598;BME280;1813;52.016;8.714;2022-11-03T06:32:59;-16261.94;;;-139.71;62.37
3598;BME280;1813;52.016;8.714;2022-11-03T06:35:34;-16261.94;;;-139.71;62.32
3598;BME280;1813;52.016;8.714;2022-11-03T06:38:13;-16261.94;;;-139.71;62.21
3598;BME280;1813;52.016;8.714;2022-11-03T06:40:51;-16261.94;;;-139.71;62.10
3598;BME280;1813;52.016;8.714;2022-11-03T06:43:32;-16261.94;;;-139.71;61.82
3598;BME280;1813;52.016;8.714;2022-11-03T06:46:13;-16261.94;;;-139.71;61.72
3598;BME280;1813;52.016;8.714;2022-11-03T06:48:49;-16261.94;;;-139.71;61.79
3598;BME280;1813;52.016;8.714;2022-11-03T06:51:26;-16261.94;;;-139.71;61.74
3598;BME280;1813;52.016;8.714;2022-11-03T06:54:04;-16261.94;;;-139.71;61.53
3598;BME280;1813;52.016;8.714;2022-11-03T06:56:43;-16261.94;;;-139.71;61.58
3598;BME280;1813;52.016;8.714;2022-11-03T06:59:18;-16261.94;;;-139.71;61.29
3598;BME280;1813;52.016;8.714;2022-11-03T07:01:54;-16261.94;;;-139.71;61.18
3598;BME280;1813;52.016;8.714;2022-11-03T07:04:28;-16261.94;;;-139.71;61.16
3598;BME280;1813;52.016;8.714;2022-11-03T07:07:02;-16261.94;;;-139.71;60.98
3598;BME280;1813;52.016;8.714;2022-11-03T07:09:36;-16261.94;;;-139.71;60.96
3598;BME280;1813;52.016;8.714;2022-11-03T07:12:16;-16261.94;;;-139.71;61.06
3598;BME280;1813;52.016;8.714;2022-11-03T07:14:51;-16261.94;;;-139.71;60.85
3598;BME280;1813;52.016;8.714;2022-11-03T07:17:24;-16261.94;;;-139.71;60.76
3598;BME280;1813;52.016;8.714;2022-11-03T07:19:58;-16261.94;;;-139.71;60.83
3598;BME280;1813;52.016;8.714;2022-11-03T07:22:32;-16261.94;;;-139.71;61.03
3598;BME280;1813;52.016;8.714;2022-11-03T07:25:13;-16261.94;;;-139.71;61.16
3598;BME280;1813;52.016;8.714;2022-11-03T07:27:52;-16261.94;;;-139.71;61.28
3598;BME280;1813;52.016;8.714;2022-11-03T07:30:29;-16261.94;;;-139.71;61.15
3598;BME280;1813;52.016;8.714;2022-11-03T07:33:10;-16261.94;;;-139.71;61.12
3598;BME280;1813;52.016;8.714;2022-11-03T07:35:47;-16261.94;;;-139.71;61.15
3598;BME280;1813;52.016;8.714;2022-11-03T07:38:22;-16261.94;;;-139.71;61.27
3598;BME280;1813;52.016;8.714;2022-11-03T07:40:57;-16261.94;;;-139.71;61.41
3598;BME280;1813;52.016;8.714;2022-11-03T07:43:35;-16261.94;;;-139.71;61.32
3598;BME280;1813;52.016;8.714;2022-11-03T07:46:11;-16261.94;;;-139.71;61.28
3598;BME280;1813;52.016;8.714;2022-11-03T07:48:52;-16261.94;;;-139.71;61.12
3598;BME280;1813;52.016;8.714;2022-11-03T07:51:28;-16261.94;;;-139.71;61.25
3598;BME280;1813;52.016;8.714;2022-11-03T07:54:09;-16261.94;;;-139.71;61.08
3598;BME280;1813;52.016;8.714;2022-11-03T07:56:48;-16261.94;;;-139.71;61.11
3598;BME280;1813;52.016;8.714;2022-11-03T07:59:27;-16261.94;;;-139.71;61.24
3598;BME280;1813;52.016;8.714;2022-11-03T08:02:05;-16261.94;;;-139.71;60.93
3598;BME280;1813;52.016;8.714;2022-11-03T08:04:46;-16261.94;;;-139.71;60.96
3598;BME280;1813;52.016;8.714;2022-11-03T08:07:20;-16261.94;;;-139.71;60.62
3598;BME280;1813;52.016;8.714;2022-11-03T08:09:54;-16261.94;;;-139.71;60.38
3598;BME280;1813;52.016;8.714;2022-11-03T08:12:28;-16261.94;;;-139.71;60.62
3598;BME280;1813;52.016;8.714;2022-11-03T08:15:06;-16261.94;;;-139.71;60.43
3598;BME280;1813;52.016;8.714;2022-11-03T08:17:41;-16261.94;;;-139.71;60.23
3598;BME280;1813;52.016;8.714;2022-11-03T08:20:15;-16261.94;;;-139.71;60.26
3598;BME280;1813;52.016;8.714;2022-11-03T08:22:49;-16261.94;;;-139.71;60.23
3598;BME280;1813;52.016;8.714;2022-11-03T08:25:23;-16261.94;;;-139.71;60.11
3598;BME280;1813;52.016;8.714;2022-11-03T08:27:57;-16261.94;;;-139.71;60.10
3598;BME280;1813;52.016;8.714;2022-11-03T08:30:35;-16261.94;;;-139.71;59.74
3598;BME280;1813;52.016;8.714;2022-11-03T08:33:09;-16261.94;;;-139.71;59.62
3598;BME280;1813;52.016;8.714;2022-11-03T08:35:43;-16261.94;;;-139.71;59.21
3598;BME280;1813;52.016;8.714;2022-11-03T08:38:17;-16261.94;;;-139.71;58.87
3598;BME280;1813;52.016;8.714;2022-11-03T08:40:51;-16261.94;;;-139.71;57.92
3598;BME280;1813;52.016;8.714;2022-11-03T08:43:25;-16261.94;;;-139.71;57.50
3598;BME280;1813;52.016;8.714;2022-11-03T08:46:02;-16261.94;;;-139.71;57.83
3598;BME280;1813;52.016;8.714;2022-11-03T08:48:36;-16261.94;;;-139.71;58.13
3598;BME280;1813;52.016;8.714;2022-11-03T08:51:10;-16261.94;;;-139.71;57.71
3598;BME280;1813;52.016;8.714;2022-11-03T08:53:44;-16261.94;;;-139.71;57.24
3598;BME280;1813;52.016;8.714;2022-11-03T08:56:20;-16261.94;;;-139.71;56.83
3598;BME280;1813;52.016;8.714;2022-11-03T08:58:54;-16261.94;;;-139.71;56.21
3598;BME280;1813;52.016;8.714;2022-11-03T09:01:32;-16261.94;;;-139.71;55.66
3598;BME280;1813;52.016;8.714;2022-11-03T09:04:06;-16261.94;;;-139.71;55.16
3598;BME280;1813;52.016;8.714;2022-11-03T09:06:40;-16261.94;;;-139.71;55.48
3598;BME280;1813;52.016;8.714;2022-11-03T09:09:14;-16261.94;;;-139.71;55.74
3598;BME280;1813;52.016;8.714;2022-11-03T09:11:51;-16261.94;;;-139.71;55.62
3598;BME280;1813;52.016;8.714;2022-11-03T09:14:25;-16261.94;;;-139.71;55.70
3598;BME280;1813;52.016;8.714;2022-11-03T09:17:01;-16261.94;;;-139.71;55.90
3598;BME280;1813;52.016;8.714;2022-11-03T09:19:35;-16261.94;;;-139.71;55.67
3598;BME280;1813;52.016;8.714;2022-11-03T09:22:09;-16261.94;;;-139.71;55.58
3598;BME280;1813;52.016;8.714;2022-11-03T09:24:43;-16261.94;;;-139.71;55.40
3598;BME280;1813;52.016;8.714;2022-11-03T09:27:18;-16261.94;;;-139.71;55.70
3598;BME280;1813;52.016;8.714;2022-11-03T09:29:52;-16261.94;;;-139.71;56.49
3598;BME280;1813;52.016;8.714;2022-11-03T09:32:29;-16261.94;;;-139.71;56.47
3598;BME280;1813;52.016;8.714;2022-11-03T09:35:05;-16261.94;;;-139.71;56.49
3598;BME280;1813;52.016;8.714;2022-11-03T09:37:39;-16261.94;;;-139.71;56.18
3598;BME280;1813;52.016;8.714;2022-11-03T09:40:15;-16261.94;;;-139.71;55.85
3598;BME280;1813;52.016;8.714;2022-11-03T09:42:51;-16261.94;;;-139.71;55.28
3598;BME280;1813;52.016;8.714;2022-11-03T09:45:25;-16261.94;;;-139.71;55.31
3598;BME280;1813;52.016;8.714;2022-11-03T09:48:02;-16261.94;;;-139.71;55.52
3598;BME280;1813;52.016;8.714;2022-11-03T09:50:36;-16261.94;;;-139.71;55.35
3598;BME280;1813;52.016;8.714;2022-11-03T09:53:11;-16261.94;;;-139.71;54.93
3598;BME280;1813;52.016;8.714;2022-11-03T09:55:45;-16261.94;;;-139.71;54.77
3598;BME280;1813;52.016;8.714;2022-11-03T09:58:19;-16261.94;;;-139.71;54.69
3598;BME280;1813;52.016;8.714;2022-11-03T10:00:53;-16261.94;;;-139.71;54.85
3598;BME280;1813;52.016;8.714;2022-11-03T10:03:29;-16261.94;;;-139.71;54.85
3598;BME280;1813;52.016;8.714;2022-11-03T10:06:04;-16261.94;;;-139.71;54.83
3598;BME280;1813;52.016;8.714;2022-11-03T10:08:39;-16261.94;;;-139.71;54.77
3598;BME280;1813;52.016;8.714;2022-11-03T10:11:14;-16261.94;;;-139.71;55.52
3598;BME280;1813;52.016;8.714;2022-11-03T10:13:50;-16261.94;;;-139.71;55.60
3598;BME280;1813;52.016;8.714;2022-11-03T10:16:25;-16261.94;;;-139.71;55.77
3598;BME280;1813;52.016;8.714;2022-11-03T10:19:03;-16261.94;;;-139.71;55.94
3598;BME280;1813;52.016;8.714;2022-11-03T10:21:37;-16261.94;;;-139.71;55.91
3598;BME280;1813;52.016;8.714;2022-11-03T10:24:13;-16261.94;;;-139.71;55.86
3598;BME280;1813;52.016;8.714;2022-11-03T10:26:48;-16261.94;;;-139.71;55.87
3598;BME280;1813;52.016;8.714;2022-11-03T10:29:23;-16261.94;;;-139.71;56.11
3598;BME280;1813;52.016;8.714;2022-11-03T10:31:57;-16261.94;;;-139.71;56.48
3598;BME280;1813;52.016;8.714;2022-11-03T10:34:36;-16261.94;;;-139.71;56.47
3598;BME280;1813;52.016;8.714;2022-11-03T10:37:16;-16261.94;;;-139.71;56.35
3598;BME280;1813;52.016;8.714;2022-11-03T10:39:57;-16261.94;;;-139.71;56.61
3598;BME280;1813;52.016;8.714;2022-11-03T10:42:31;-16261.94;;;-139.71;56.72
3598;BME280;1813;52.016;8.714;2022-11-03T10:45:10;-16261.94;;;-139.71;56.81
3598;BME280;1813;52.016;8.714;2022-11-03T10:47:58;-16261.94;;;-139.71;57.42
3598;BME280;1813;52.016;8.714;2022-11-03T10:50:38;-16261.94;;;-139.71;57.49
3598;BME280;1813;52.016;8.714;2022-11-03T10:53:16;-16261.94;;;-139.71;57.81
3598;BME280;1813;52.016;8.714;2022-11-03T10:55:52;-16261.94;;;-139.71;57.93
3598;BME280;1813;52.016;8.714;2022-11-03T10:58:27;-16261.94;;;-139.71;57.99
3598;BME280;1813;52.016;8.714;2022-11-03T11:01:01;-16261.94;;;-139.71;58.22
3598;BME280;1813;52.016;8.714;2022-11-03T11:03:39;-16261.94;;;-139.71;58.21
3598;BME280;1813;52.016;8.714;2022-11-03T11:06:24;-16261.94;;;-139.71;58.27
3598;BME280;1813;52.016;8.714;2022-11-03T11:09:00;-16261.94;;;-139.71;58.41
3598;BME280;1813;52.016;8.714;2022-11-03T11:11:35;-16261.94;;;-139.71;58.46
3598;BME280;1813;52.016;8.714;2022-11-03T11:14:31;-16261.94;;;-139.71;58.14
3598;BME280;1813;52.016;8.714;2022-11-03T11:20:39;-16261.94;;;-139.71;56.64
3598;BME280;1813;52.016;8.714;2022-11-03T11:26:42;-16261.94;;;-139.71;56.84
3598;BME280;1813;52.016;8.714;2022-11-03T11:29:42;-16261.94;;;-139.71;56.78
3598;BME280;1813;52.016;8.714;2022-11-03T11:32:49;-16261.94;;;-139.71;56.81
3598;BME280;1813;52.016;8.714;2022-11-03T11:38:55;-16261.94;;;-139.71;56.97
3598;BME280;1813;52.016;8.714;2022-11-03T11:45:00;-16261.94;;;-139.71;57.36
3598;BME280;1813;52.016;8.714;2022-11-03T11:47:46;-16261.94;;;-139.71;57.15
3598;BME280;1813;52.016;8.714;2022-11-03T11:50:23;-16261.94;;;-139.71;56.52
3598;BME280;1813;52.016;8.714;2022-11-03T11:53:18;-16261.94;;;-139.71;56.73
3598;BME280;1813;52.016;8.714;2022-11-03T11:55:54;-16261.94;;;-139.71;57.27
3598;BME280;1813;52.016;8.714;2022-11-03T11:58:36;-16261.94;;;-139.71;57.27
3598;BME280;1813;52.016;8.714;2022-11-03T12:01:25;-16261.94;;;-139.71;57.97
3598;BME280;1813;52.016;8.714;2022-11-03T12:04:06;-16261.94;;;-139.71;57.64
3598;BME280;1813;52.016;8.714;2022-11-03T12:06:47;-16261.94;;;-139.71;56.85
3598;BME280;1813;52.016;8.714;2022-11-03T12:09:23;-16261.94;;;-139.71;56.79
3598;BME280;1813;52.016;8.714;2022-11-03T12:11:58;-16261.94;;;-139.71;57.44
3598;BME280;1813;52.016;8.714;2022-11-03T12:14:34;-16261.94;;;-139.71;57.31
3598;BME280;1813;52.016;8.714;2022-11-03T12:17:35;-16261.94;;;-139.71;57.00
3598;BME280;1813;52.016;8.714;2022-11-03T12:20:42;-16261.94;;;-139.71;56.51
3598;BME280;1813;52.016;8.714;2022-11-03T12:23:34;-16261.94;;;-139.71;56.66
3598;BME280;1813;52.016;8.714;2022-11-03T12:26:17;-16261.94;;;-139.71;56.30
3598;BME280;1813;52.016;8.714;2022-11-03T12:28:51;-16261.94;;;-139.71;56.76
3598;BME280;1813;52.016;8.714;2022-11-03T12:31:26;-16261.94;;;-139.71;57.27
3598;BME280;1813;52.016;8.714;2022-11-03T12:34:02;-16261.94;;;-139.71;56.85
3598;BME280;1813;52.016;8.714;2022-11-03T12:36:36;-16261.94;;;-139.71;56.62
3598;BME280;1813;52.016;8.714;2022-11-03T12:39:10;-16261.94;;;-139.71;57.08
3598;BME280;1813;52.016;8.714;2022-11-03T12:41:45;-16261.94;;;-139.71;57.18
3598;BME280;1813;52.016;8.714;2022-11-03T12:44:19;-16261.94;;;-139.71;57.17
3598;BME280;1813;52.016;8.714;2022-11-03T12:46:53;-16261.94;;;-139.71;56.95
3598;BME280;1813;52.016;8.714;2022-11-03T12:49:30;-16261.94;;;-139.71;56.76
3598;BME280;1813;52.016;8.714;2022-11-03T12:52:04;-16261.94;;;-139.71;56.71
3598;BME280;1813;52.016;8.714;2022-11-03T12:54:38;-16261.94;;;-139.71;56.56
3598;BME280;1813;52.016;8.714;2022-11-03T12:57:12;-16261.94;;;-139.71;57.21
3598;BME280;1813;52.016;8.714;2022-11-03T12:59:46;-16261.94;;;-139.71;57.14
3598;BME280;1813;52.016;8.714;2022-11-03T13:02:21;-16261.94;;;-139.71;57.32
3598;BME280;1813;52.016;8.714;2022-11-03T13:04:58;-16261.94;;;-139.71;57.11
3598;BME280;1813;52.016;8.714;2022-11-03T13:07:32;-16261.94;;;-139.71;57.27
3598;BME280;1813;52.016;8.714;2022-11-03T13:10:07;-16261.94;;;-139.71;56.79
3598;BME280;1813;52.016;8.714;2022-11-03T13:12:41;-16261.94;;;-139.71;57.05
3598;BME280;1813;52.016;8.714;2022-11-03T13:15:16;-16261.94;;;-139.71;57.78
3598;BME280;1813;52.016;8.714;2022-11-03T13:17:50;-16261.94;;;-139.71;57.24
3598;BME280;1813;52.016;8.714;2022-11-03T13:20:28;-16261.94;;;-139.71;56.44
3598;BME280;1813;52.016;8.714;2022-11-03T13:23:03;-16261.94;;;-139.71;55.79
3598;BME280;1813;52.016;8.714;2022-11-03T13:25:37;-16261.94;;;-139.71;54.97
3598;BME280;1813;52.016;8.714;2022-11-03T13:28:11;-16261.94;;;-139.71;53.64
3598;BME280;1813;52.016;8.714;2022-11-03T13:30:45;-16261.94;;;-139.71;52.83
3598;BME280;1813;52.016;8.714;2022-11-03T13:33:19;-16261.94;;;-139.71;53.18
3598;BME280;1813;52.016;8.714;2022-11-03T13:35:56;-16261.94;;;-139.71;53.20
3598;BME280;1813;52.016;8.714;2022-11-03T13:38:30;-16261.94;;;-139.71;52.87
3598;BME280;1813;52.016;8.714;2022-11-03T13:41:05;-16261.94;;;-139.71;53.11
3598;BME280;1813;52.016;8.714;2022-11-03T13:43:39;-16261.94;;;-139.71;53.21
3598;BME280;1813;52.016;8.714;2022-11-03T13:46:13;-16261.94;;;-139.71;53.18
3598;BME280;1813;52.016;8.714;2022-11-03T13:48:47;-16261.94;;;-139.71;53.71
3598;BME280;1813;52.016;8.714;2022-11-03T13:51:23;-16261.94;;;-139.71;53.67
3598;BME280;1813;52.016;8.714;2022-11-03T13:53:57;-16261.94;;;-139.71;53.82
3598;BME280;1813;52.016;8.714;2022-11-03T13:56:32;-16261.94;;;-139.71;53.83